aviador You're here:

FALE Decoded Metar

KING SHAKA INT ARPT in SOUTH AFRICA
Report Time2018-02-22 08:20:00
UTC Time2018-02-22 08:30:58
Flight Rules vfr VFR
Wind020° at 05 kt
W.Decomp.*RWY 06: 4.8 kt HW 1.4 kt LCW
W.Rank020° ranks 11
Current wind is below 020° avg. (6.7)
Visibility9999 m
Phenomena:N/A
Clouds:Few 020 Hf
Expected CloudBase > 2,400 ft AGL from Temp-Dew spread
CeilingNone
Temp27°C (ISA +13)
Dew Point21°C (70% RH)
Heat Index28.9°C
QNH1015 hPa
Density Alt2,008 ft
Elevation295 ft
Report Wrong Elevation
Raw Report
SPECI FALE 220820Z 02005KT 320V110 9999 FEW020 27/21 Q1015 NOSIG=

Extra information for FALE:More info

Metar Taf Metar & Taf Last 4 Metars F.Rules Stats Wind Profile Meteogram Temp Stats Airport Information Weather charts Add Link Nearby VenuesMetar ALERT Operation Metar Decoded Social comments